Time;durP1;ratioP1;P1;durP2;ratioP2;P2;SDS_P1;SDS_P2;PMS_P1;PMS_P2;Temp;Humidity;BMP_temperature;BMP_pressure;BME280_temperature;BME280_humidity;BME280_pressure;Samples;Min_cycle;Max_cycle;Signal;HPM_P1;HPM_P2
2023/09/11 00:01:23;;;;;;;21.67;15.55;;;21.80;99.90;;;;;;5051358;28;20076;-66
2023/09/11 00:03:49;;;;;;;22.25;15.45;;;21.70;99.90;;;;;;5049881;28;20041;-67
2023/09/11 00:06:15;;;;;;;22.38;15.85;;;21.70;99.90;;;;;;5045182;28;20053;-67
2023/09/11 00:08:41;;;;;;;21.55;15.73;;;21.70;99.90;;;;;;5051300;28;20052;-66
2023/09/11 00:11:06;;;;;;;22.20;15.52;;;21.70;99.90;;;;;;5051704;28;20498;-67
2023/09/11 00:13:32;;;;;;;19.02;16.13;;;21.70;99.90;;;;;;5048456;28;20049;-66
2023/09/11 00:15:58;;;;;;;22.00;15.52;;;21.60;99.90;;;;;;5050004;28;20054;-66
2023/09/11 00:18:24;;;;;;;23.38;15.23;;;21.60;99.90;;;;;;5033246;28;20041;-66
2023/09/11 00:20:50;;;;;;;23.05;15.65;;;21.60;99.90;;;;;;5051620;28;20041;-65
2023/09/11 00:23:16;;;;;;;21.30;15.10;;;21.60;99.90;;;;;;5050761;28;20041;-71
2023/09/11 00:25:42;;;;;;;27.17;16.17;;;21.60;99.90;;;;;;5064760;28;20053;-65
2023/09/11 00:28:07;;;;;;;20.10;15.45;;;21.50;99.90;;;;;;5048238;28;20037;-66
2023/09/11 00:30:35;;;;;;;24.42;15.23;;;21.50;99.90;;;;;;5049634;28;20041;-65
2023/09/11 00:33:01;;;;;;;25.60;17.00;;;21.50;99.90;;;;;;5051221;28;20448;-66
2023/09/11 00:35:27;;;;;;;30.73;16.63;;;21.50;99.90;;;;;;5048953;28;20119;-66
2023/09/11 00:37:53;;;;;;;21.83;16.77;;;21.50;99.90;;;;;;5052474;28;20044;-67
2023/09/11 00:40:18;;;;;;;22.00;15.98;;;21.50;99.90;;;;;;5037143;28;20099;-69
2023/09/11 00:42:44;;;;;;;18.67;15.68;;;21.40;99.90;;;;;;5055033;28;20076;-65
2023/09/11 00:45:11;;;;;;;26.65;16.15;;;21.40;99.90;;;;;;5048613;28;20502;-66
2023/09/11 00:47:38;;;;;;;24.80;15.48;;;21.40;99.90;;;;;;5045875;28;20053;-65
2023/09/11 00:50:06;;;;;;;23.77;15.52;;;21.40;99.90;;;;;;5054850;28;20128;-71
2023/09/11 00:52:32;;;;;;;22.15;16.13;;;21.30;99.90;;;;;;5051635;28;20053;-66
2023/09/11 00:54:59;;;;;;;22.38;16.45;;;21.30;99.90;;;;;;5042850;28;20045;-67
2023/09/11 00:57:26;;;;;;;22.40;16.65;;;21.30;99.90;;;;;;5053394;28;20166;-67
2023/09/11 00:59:51;;;;;;;21.83;15.27;;;21.30;99.90;;;;;;5055282;28;20041;-66
2023/09/11 01:02:18;;;;;;;23.40;16.63;;;21.30;99.90;;;;;;5052948;28;20429;-65
2023/09/11 01:04:45;;;;;;;23.65;15.68;;;21.30;99.90;;;;;;5046464;28;20045;-65
2023/09/11 01:07:14;;;;;;;20.77;15.70;;;21.20;99.90;;;;;;5047382;28;20047;-65
2023/09/11 01:09:41;;;;;;;22.92;16.15;;;21.30;99.90;;;;;;5045633;28;20053;-66
2023/09/11 01:12:07;;;;;;;22.40;15.85;;;21.20;99.90;;;;;;5054476;28;20049;-66
2023/09/11 01:14:35;;;;;;;26.02;17.10;;;21.20;99.90;;;;;;5054228;28;20429;-67
2023/09/11 01:17:15;;;;;;;22.50;15.88;;;21.20;99.90;;;;;;5047308;28;20468;-66
2023/09/11 01:20:09;;;;;;;24.05;16.40;;;21.20;99.90;;;;;;5053917;28;20053;-67
2023/09/11 01:22:49;;;;;;;22.52;16.30;;;21.20;99.90;;;;;;5053710;28;20068;-66
2023/09/11 01:25:41;;;;;;;19.67;15.75;;;21.20;99.90;;;;;;5054610;28;20770;-66
2023/09/11 01:28:12;;;;;;;24.83;16.73;;;21.10;99.90;;;;;;5046749;28;20053;-67
2023/09/11 01:30:41;;;;;;;21.33;16.60;;;21.20;99.90;;;;;;5053635;28;20048;-67
2023/09/11 01:33:06;;;;;;;23.08;16.73;;;21.10;99.90;;;;;;5053505;28;20128;-68
2023/09/11 01:35:32;;;;;;;26.15;16.77;;;21.00;99.90;;;;;;5052682;28;20124;-64
2023/09/11 01:37:59;;;;;;;23.05;16.48;;;21.00;99.90;;;;;;5052266;28;20045;-66
2023/09/11 01:40:28;;;;;;;23.40;16.52;;;21.00;99.90;;;;;;5054025;28;20102;-72
2023/09/11 01:42:56;;;;;;;20.05;16.42;;;20.90;99.90;;;;;;5054240;28;20045;-66
2023/09/11 01:45:23;;;;;;;26.35;16.77;;;20.90;99.90;;;;;;5035560;28;20041;-66
2023/09/11 01:47:52;;;;;;;21.88;16.90;;;20.90;99.90;;;;;;5051294;28;20567;-66
2023/09/11 01:50:21;;;;;;;21.08;16.10;;;20.90;99.90;;;;;;5052475;28;20048;-65
2023/09/11 01:52:49;;;;;;;27.23;17.67;;;20.90;99.90;;;;;;5053200;28;20041;-66
2023/09/11 01:55:16;;;;;;;26.92;17.23;;;20.90;99.90;;;;;;5052344;28;20045;-66
2023/09/11 01:57:42;;;;;;;26.77;17.40;;;20.90;99.90;;;;;;5045805;28;20053;-66
2023/09/11 02:00:08;;;;;;;27.10;16.85;;;20.90;99.90;;;;;;5053692;28;20060;-66
2023/09/11 02:02:34;;;;;;;21.55;15.98;;;20.90;99.90;;;;;;5051826;28;20437;-68
2023/09/11 02:05:02;;;;;;;26.85;15.93;;;20.90;99.90;;;;;;5052208;28;20045;-66
2023/09/11 02:07:27;;;;;;;22.38;16.15;;;20.80;99.90;;;;;;5050254;28;20375;-72
2023/09/11 02:09:53;;;;;;;25.88;16.48;;;20.80;99.90;;;;;;5051973;28;20044;-67
2023/09/11 02:12:19;;;;;;;21.20;16.20;;;20.80;99.90;;;;;;5053574;28;20036;-66
2023/09/11 02:14:45;;;;;;;21.42;16.05;;;20.70;99.90;;;;;;5052740;28;20552;-66
2023/09/11 02:17:10;;;;;;;28.45;17.33;;;20.70;99.90;;;;;;5048478;28;20040;-67
2023/09/11 02:19:36;;;;;;;28.27;16.52;;;20.70;99.90;;;;;;5052852;28;20041;-67
2023/09/11 02:22:02;;;;;;;24.42;16.38;;;20.70;99.90;;;;;;5051746;28;20091;-67
2023/09/11 02:24:27;;;;;;;23.90;16.55;;;20.70;99.90;;;;;;5052160;28;20060;-67
2023/09/11 02:26:55;;;;;;;23.35;16.98;;;20.70;99.90;;;;;;5050704;28;20048;-67
2023/09/11 02:29:21;;;;;;;24.40;16.50;;;20.70;99.90;;;;;;5052914;28;20052;-67
2023/09/11 02:31:46;;;;;;;24.15;15.85;;;20.70;99.90;;;;;;5052554;28;20123;-67
2023/09/11 02:34:12;;;;;;;23.75;16.13;;;20.80;99.90;;;;;;5051708;28;20036;-66
2023/09/11 02:36:38;;;;;;;28.42;15.95;;;20.70;99.90;;;;;;5047811;28;20140;-67
2023/09/11 02:39:04;;;;;;;25.35;16.13;;;20.70;99.90;;;;;;5038888;28;20503;-67
2023/09/11 02:41:29;;;;;;;26.23;15.60;;;20.70;99.90;;;;;;5050581;28;20076;-67
2023/09/11 02:43:55;;;;;;;23.90;15.18;;;20.70;99.90;;;;;;5047792;28;20495;-68
2023/09/11 02:46:21;;;;;;;28.52;16.65;;;20.70;99.90;;;;;;5047600;28;20051;-67
2023/09/11 02:48:48;;;;;;;28.40;15.50;;;20.60;99.90;;;;;;5048530;28;20065;-66
2023/09/11 02:51:14;;;;;;;23.80;15.63;;;20.60;99.90;;;;;;5041474;28;20164;-66
2023/09/11 02:53:40;;;;;;;27.25;15.85;;;20.70;99.90;;;;;;5040194;28;20084;-66
2023/09/11 02:56:06;;;;;;;27.42;15.35;;;20.70;99.90;;;;;;5048685;28;20492;-66
2023/09/11 02:58:32;;;;;;;24.70;15.48;;;20.70;99.90;;;;;;5050983;28;20052;-66
2023/09/11 03:01:04;;;;;;;23.17;16.13;;;20.70;99.90;;;;;;5044233;28;20049;-68
2023/09/11 03:03:31;;;;;;;25.10;14.95;;;20.70;99.90;;;;;;5050335;28;20136;-65
2023/09/11 03:06:02;;;;;;;23.02;15.85;;;20.70;99.90;;;;;;5051697;28;20164;-66
2023/09/11 03:08:28;;;;;;;25.75;15.98;;;20.70;99.90;;;;;;5051822;28;20107;-66
2023/09/11 03:11:02;;;;;;;21.70;14.82;;;20.70;99.90;;;;;;5049061;28;20088;-66
2023/09/11 03:13:28;;;;;;;29.33;14.95;;;20.70;99.90;;;;;;5052100;28;20380;-66
2023/09/11 03:15:53;;;;;;;24.85;15.43;;;20.70;99.90;;;;;;5034161;28;20053;-66
2023/09/11 03:18:20;;;;;;;26.52;14.82;;;20.70;99.90;;;;;;5051679;28;20052;-71
2023/09/11 03:20:53;;;;;;;23.75;14.68;;;20.70;99.90;;;;;;5051484;28;20041;-66
2023/09/11 03:23:20;;;;;;;24.85;15.13;;;20.70;99.90;;;;;;5045793;28;20373;-66
2023/09/11 03:25:47;;;;;;;23.50;14.52;;;20.60;99.90;;;;;;5051406;28;20045;-66
2023/09/11 03:28:13;;;;;;;21.10;13.75;;;20.60;99.90;;;;;;5051045;28;20052;-67
2023/09/11 03:30:39;;;;;;;25.33;14.50;;;20.60;99.90;;;;;;5050014;28;20049;-66
2023/09/11 03:33:04;;;;;;;22.17;14.57;;;20.50;99.90;;;;;;5047038;28;20175;-66
2023/09/11 03:35:30;;;;;;;28.95;14.90;;;20.60;99.90;;;;;;5051732;28;20486;-66
2023/09/11 03:37:56;;;;;;;32.70;14.77;;;20.60;99.90;;;;;;5051538;28;20052;-67
2023/09/11 03:40:22;;;;;;;27.00;14.60;;;20.60;99.90;;;;;;5050431;28;20051;-66
2023/09/11 03:42:48;;;;;;;23.38;13.75;;;20.50;99.90;;;;;;5048891;28;20064;-66
2023/09/11 03:45:14;;;;;;;28.65;14.18;;;20.50;99.90;;;;;;5051709;28;20044;-66
2023/09/11 03:47:40;;;;;;;23.00;14.60;;;20.50;99.90;;;;;;5051412;28;20470;-66
2023/09/11 03:50:07;;;;;;;27.60;14.50;;;20.50;99.90;;;;;;5049729;28;20486;-66
2023/09/11 03:52:33;;;;;;;26.45;14.77;;;20.50;99.90;;;;;;5050075;28;20099;-66
2023/09/11 03:54:59;;;;;;;27.52;14.00;;;20.50;99.90;;;;;;5050252;28;20049;-66
2023/09/11 03:57:24;;;;;;;19.55;13.70;;;20.50;99.90;;;;;;5051808;28;20041;-67
2023/09/11 03:59:50;;;;;;;28.25;13.75;;;20.40;99.90;;;;;;5049591;28;20482;-67
2023/09/11 04:02:16;;;;;;;20.52;14.60;;;20.50;99.90;;;;;;5051299;28;20109;-66
2023/09/11 04:04:41;;;;;;;24.17;14.60;;;20.50;99.90;;;;;;5049563;28;20052;-66
2023/09/11 04:07:07;;;;;;;24.75;14.77;;;20.50;99.90;;;;;;5050575;28;20131;-66
2023/09/11 04:09:33;;;;;;;27.58;13.85;;;20.50;99.90;;;;;;5050381;28;20454;-65
2023/09/11 04:12:02;;;;;;;24.23;15.55;;;20.40;99.90;;;;;;5050556;28;20075;-66
2023/09/11 04:14:28;;;;;;;23.58;13.75;;;20.40;99.90;;;;;;5045917;28;20388;-66
2023/09/11 04:16:54;;;;;;;28.58;14.80;;;20.40;99.90;;;;;;5050971;28;20074;-66
2023/09/11 04:19:19;;;;;;;29.75;15.43;;;20.40;99.90;;;;;;5054446;28;20052;-67
2023/09/11 04:21:45;;;;;;;26.23;15.90;;;20.40;99.90;;;;;;5054997;28;20076;-67
2023/09/11 04:24:13;;;;;;;25.40;15.23;;;20.40;99.90;;;;;;5051504;28;20132;-67
2023/09/11 04:26:40;;;;;;;26.42;15.82;;;20.30;99.90;;;;;;5043286;28;20049;-65
2023/09/11 04:29:11;;;;;;;28.70;16.27;;;20.30;99.90;;;;;;5068949;28;20463;-67
2023/09/11 04:31:38;;;;;;;22.67;16.00;;;20.30;99.90;;;;;;5054935;28;20044;-66
2023/09/11 04:34:04;;;;;;;30.27;16.48;;;20.30;99.90;;;;;;5053899;28;20070;-67
2023/09/11 04:36:30;;;;;;;24.05;14.93;;;20.30;99.90;;;;;;5054908;28;20049;-67
2023/09/11 04:38:55;;;;;;;28.10;15.18;;;20.30;99.90;;;;;;5036746;28;20041;-67
2023/09/11 04:41:21;;;;;;;30.65;15.48;;;20.30;99.90;;;;;;5055033;28;20041;-66
2023/09/11 04:43:47;;;;;;;26.48;15.88;;;20.20;99.90;;;;;;5054320;28;20043;-66
2023/09/11 04:46:13;;;;;;;25.48;14.85;;;20.20;99.90;;;;;;5052394;28;20044;-68
2023/09/11 04:48:38;;;;;;;31.80;15.85;;;20.20;99.90;;;;;;5054933;28;20057;-66
2023/09/11 04:51:05;;;;;;;29.48;15.45;;;20.20;99.90;;;;;;5054182;28;20095;-66
2023/09/11 04:53:30;;;;;;;27.48;15.25;;;20.20;99.90;;;;;;5053616;28;20045;-67
2023/09/11 04:55:56;;;;;;;26.77;15.02;;;20.20;99.90;;;;;;5046970;28;20056;-67
2023/09/11 04:58:22;;;;;;;26.83;15.52;;;20.10;99.90;;;;;;5051642;28;20383;-66
2023/09/11 05:00:48;;;;;;;28.90;15.77;;;20.10;99.90;;;;;;5054335;28;20053;-67
2023/09/11 05:03:13;;;;;;;36.00;17.00;;;20.10;99.90;;;;;;5053564;28;20112;-67
2023/09/11 05:05:41;;;;;;;26.73;15.95;;;20.10;99.90;;;;;;5053886;28;20044;-67
2023/09/11 05:08:07;;;;;;;30.90;16.42;;;20.10;99.90;;;;;;5045341;28;20049;-66
2023/09/11 05:10:33;;;;;;;29.23;15.30;;;20.10;99.90;;;;;;5041446;28;20116;-66
2023/09/11 05:12:59;;;;;;;30.92;15.63;;;20.10;99.90;;;;;;5039528;28;20049;-68
2023/09/11 05:15:25;;;;;;;27.60;15.48;;;20.10;99.90;;;;;;5044128;28;20045;-67
2023/09/11 05:17:51;;;;;;;31.42;15.65;;;20.10;99.90;;;;;;5036740;28;20056;-67
2023/09/11 05:20:17;;;;;;;29.83;16.67;;;20.10;99.90;;;;;;5023048;28;20122;-67
2023/09/11 05:22:42;;;;;;;35.05;16.13;;;20.20;99.90;;;;;;5035596;28;20450;-67
2023/09/11 05:25:09;;;;;;;23.17;14.50;;;20.20;99.90;;;;;;5040153;28;20052;-67
2023/09/11 05:27:34;;;;;;;32.40;15.98;;;20.20;99.90;;;;;;5035300;28;20398;-67
2023/09/11 05:30:00;;;;;;;27.90;15.15;;;20.30;99.90;;;;;;5033886;28;20045;-67
2023/09/11 05:32:26;;;;;;;25.73;15.13;;;20.30;99.90;;;;;;5057227;28;20158;-67
2023/09/11 05:34:52;;;;;;;28.52;15.85;;;20.40;99.90;;;;;;5042876;28;20048;-67
2023/09/11 05:37:18;;;;;;;29.30;15.77;;;20.40;99.90;;;;;;5037760;28;20045;-70
2023/09/11 05:39:44;;;;;;;26.15;14.88;;;20.50;99.90;;;;;;5042473;28;20063;-67
2023/09/11 05:42:10;;;;;;;26.10;14.48;;;20.60;99.90;;;;;;5032416;28;20056;-67
2023/09/11 05:44:36;;;;;;;27.35;14.23;;;20.60;99.90;;;;;;5040408;28;20395;-66
2023/09/11 05:47:03;;;;;;;30.02;15.88;;;20.70;99.90;;;;;;5037142;28;20049;-67
2023/09/11 05:49:29;;;;;;;27.00;13.75;;;20.90;99.90;;;;;;5033068;28;20056;-66
2023/09/11 05:51:55;;;;;;;42.40;14.18;;;21.20;99.90;;;;;;5073038;28;20457;-65
2023/09/11 05:54:21;;;;;;;26.70;13.98;;;21.40;99.90;;;;;;5081495;28;20079;-66
2023/09/11 05:56:47;;;;;;;28.58;14.82;;;21.70;99.90;;;;;;5035359;28;20398;-66
2023/09/11 05:59:14;;;;;;;26.35;13.80;;;22.00;99.90;;;;;;5052345;28;20044;-65
2023/09/11 06:01:40;;;;;;;26.63;13.00;;;22.10;99.90;;;;;;5052750;28;20124;-65
2023/09/11 06:04:06;;;;;;;25.83;13.63;;;22.10;99.90;;;;;;5051216;28;20123;-66
2023/09/11 06:06:32;;;;;;;34.08;14.07;;;22.10;99.90;;;;;;5051899;28;20540;-66
2023/09/11 06:08:59;;;;;;;31.65;14.30;;;22.00;99.90;;;;;;5053463;28;20049;-66
2023/09/11 06:11:25;;;;;;;22.52;12.40;;;22.00;99.90;;;;;;5047861;28;20049;-67
2023/09/11 06:13:50;;;;;;;26.30;13.05;;;22.00;99.90;;;;;;5052911;28;20478;-66
2023/09/11 06:16:16;;;;;;;29.30;13.65;;;22.00;99.90;;;;;;5051636;28;20040;-66
2023/09/11 06:18:42;;;;;;;27.77;13.15;;;22.00;99.90;;;;;;5052601;28;20080;-65
2023/09/11 06:21:08;;;;;;;24.25;12.57;;;22.00;99.90;;;;;;5050687;28;20128;-67
2023/09/11 06:23:33;;;;;;;26.20;12.43;;;22.00;99.90;;;;;;5052730;28;21223;-66
2023/09/11 06:25:59;;;;;;;28.27;12.90;;;22.00;99.90;;;;;;5051338;28;20083;-66
2023/09/11 06:28:25;;;;;;;26.75;12.55;;;22.10;99.90;;;;;;5051575;28;20074;-66
2023/09/11 06:30:50;;;;;;;26.23;13.30;;;22.00;99.90;;;;;;5053112;28;20045;-66
2023/09/11 06:33:16;;;;;;;25.52;13.05;;;22.00;99.90;;;;;;5048968;28;20124;-66
2023/09/11 06:35:42;;;;;;;30.70;12.88;;;22.10;99.90;;;;;;5047084;28;20449;-65
2023/09/11 06:38:07;;;;;;;21.25;12.05;;;22.10;99.90;;;;;;5073205;28;20037;-71
2023/09/11 06:40:33;;;;;;;26.17;12.20;;;22.10;99.90;;;;;;5032080;28;20128;-66
2023/09/11 06:42:59;;;;;;;25.50;13.57;;;22.30;99.90;;;;;;5033967;28;20045;-65
2023/09/11 06:45:24;;;;;;;28.77;12.35;;;22.40;99.90;;;;;;5030731;28;20422;-65
2023/09/11 06:47:50;;;;;;;26.52;12.48;;;22.50;99.90;;;;;;5036743;28;20063;-65
2023/09/11 06:50:16;;;;;;;25.42;12.57;;;22.50;99.90;;;;;;5033463;28;20127;-64
2023/09/11 06:52:42;;;;;;;24.90;11.93;;;22.50;99.90;;;;;;5045213;28;20076;-67
2023/09/11 06:55:08;;;;;;;22.95;11.63;;;22.60;99.90;;;;;;5038614;28;20041;-66
2023/09/11 06:57:34;;;;;;;28.83;12.18;;;22.70;99.90;;;;;;5051132;28;20060;-66
2023/09/11 07:00:00;;;;;;;23.88;11.52;;;22.70;99.90;;;;;;5052174;28;20045;-66
2023/09/11 07:02:26;;;;;;;19.38;11.40;;;22.90;99.90;;;;;;5051846;28;20116;-66
2023/09/11 07:04:51;;;;;;;22.80;11.38;;;23.00;99.90;;;;;;5031547;28;20045;-66
2023/09/11 07:07:17;;;;;;;25.00;11.52;;;23.20;99.90;;;;;;5050872;28;20048;-66
2023/09/11 07:09:43;;;;;;;25.10;10.80;;;23.30;99.90;;;;;;5052124;28;20068;-66
2023/09/11 07:12:08;;;;;;;26.30;11.32;;;23.50;99.90;;;;;;5051725;28;20041;-65
2023/09/11 07:14:34;;;;;;;21.15;10.88;;;23.60;99.90;;;;;;5043688;28;20070;-65
2023/09/11 07:17:02;;;;;;;22.17;9.63;;;23.90;99.90;;;;;;5036244;28;20129;-67
2023/09/11 07:19:27;;;;;;;24.67;10.65;;;24.20;99.90;;;;;;5033508;28;20412;-65
2023/09/11 07:21:53;;;;;;;26.05;10.60;;;24.40;99.90;;;;;;5035538;28;20057;-65
2023/09/11 07:24:19;;;;;;;23.15;10.48;;;24.50;99.90;;;;;;5031335;28;20049;-65
2023/09/11 07:26:45;;;;;;;23.73;9.95;;;24.60;99.90;;;;;;5032189;28;20053;-65
2023/09/11 07:29:10;;;;;;;22.33;9.38;;;24.70;99.90;;;;;;5032160;28;20064;-67
2023/09/11 07:31:36;;;;;;;18.05;9.45;;;24.70;99.90;;;;;;5045812;28;20044;-66
2023/09/11 07:34:02;;;;;;;21.27;10.73;;;24.80;99.90;;;;;;5034498;28;20475;-65
2023/09/11 07:36:29;;;;;;;23.58;10.02;;;24.80;99.90;;;;;;5031395;28;20123;-65
2023/09/11 07:38:55;;;;;;;23.00;10.20;;;24.90;99.90;;;;;;5031900;28;20095;-66
2023/09/11 07:41:21;;;;;;;25.73;10.40;;;25.10;99.90;;;;;;5034939;28;20095;-66
2023/09/11 07:43:50;;;;;;;20.25;9.15;;;25.30;99.90;;;;;;5032124;28;20046;-65
2023/09/11 07:46:24;;;;;;;20.58;9.55;;;25.80;99.90;;;;;;5031601;28;20037;-72
2023/09/11 07:48:50;;;;;;;19.35;9.30;;;26.50;99.90;;;;;;5034791;28;20123;-65
2023/09/11 07:51:16;;;;;;;20.77;9.48;;;27.10;99.90;;;;;;5036037;28;20112;-72
2023/09/11 07:53:42;;;;;;;19.48;9.98;;;27.90;99.90;;;;;;5030330;28;20045;-66
2023/09/11 07:56:10;;;;;;;18.60;8.68;;;28.40;99.90;;;;;;5045242;28;20041;-66
2023/09/11 07:58:36;;;;;;;17.55;8.13;;;29.00;99.90;;;;;;5050934;28;20040;-66
2023/09/11 08:01:02;;;;;;;20.65;8.75;;;29.50;99.90;;;;;;5047573;28;20041;-66
2023/09/11 08:03:28;;;;;;;15.13;8.05;;;29.90;99.90;;;;;;5048432;28;20041;-66
2023/09/11 08:05:54;;;;;;;20.55;8.15;;;30.40;99.90;;;;;;5051667;28;20041;-66
2023/09/11 08:08:20;;;;;;;19.83;7.95;;;30.80;99.90;;;;;;5050314;28;20060;-73
2023/09/11 08:10:46;;;;;;;16.05;7.03;;;31.20;99.90;;;;;;5033682;28;20087;-66
2023/09/11 08:13:11;;;;;;;20.98;8.07;;;31.70;99.90;;;;;;5047056;28;20080;-66
2023/09/11 08:15:37;;;;;;;19.52;7.30;;;31.90;99.90;;;;;;5050912;28;20040;-66
2023/09/11 08:18:03;;;;;;;16.98;6.90;;;32.30;99.90;;;;;;5050492;28;20100;-66
2023/09/11 08:20:29;;;;;;;19.90;6.90;;;32.70;99.50;;;;;;5050337;28;20064;-66
2023/09/11 08:22:54;;;;;;;16.63;7.38;;;33.00;99.20;;;;;;5042113;28;20076;-66
2023/09/11 08:25:20;;;;;;;18.52;6.28;;;33.40;98.80;;;;;;5018925;28;20041;-65
2023/09/11 08:27:46;;;;;;;16.25;6.53;;;33.70;98.50;;;;;;5032398;28;20050;-67
2023/09/11 08:30:13;;;;;;;19.55;6.30;;;34.00;98.00;;;;;;5040420;28;20045;-65
2023/09/11 08:32:39;;;;;;;13.90;6.30;;;34.30;97.60;;;;;;5047476;28;20041;-65
2023/09/11 08:35:05;;;;;;;12.27;5.90;;;34.60;96.90;;;;;;5036300;28;20056;-65
2023/09/11 08:37:31;;;;;;;17.27;5.38;;;34.80;96.70;;;;;;5030769;28;20049;-66
2023/09/11 08:39:56;;;;;;;20.50;6.70;;;34.90;96.40;;;;;;5033557;28;20094;-65
2023/09/11 08:42:26;;;;;;;15.35;5.93;;;35.10;96.20;;;;;;5048087;28;20053;-66
2023/09/11 08:44:52;;;;;;;15.05;6.45;;;35.30;95.30;;;;;;5045687;28;20112;-65
2023/09/11 08:47:23;;;;;;;15.43;5.35;;;35.40;95.30;;;;;;5037508;28;20064;-66
2023/09/11 08:49:54;;;;;;;15.25;5.68;;;35.70;95.00;;;;;;5045338;28;20061;-66
2023/09/11 08:52:20;;;;;;;17.95;6.43;;;35.60;94.40;;;;;;5046936;28;20076;-65
2023/09/11 08:54:59;;;;;;;15.02;5.93;;;35.50;94.50;;;;;;5041267;28;20627;-65
2023/09/11 08:57:27;;;;;;;15.65;5.68;;;35.70;93.80;;;;;;5041127;28;20499;-67
2023/09/11 08:59:59;;;;;;;12.68;5.65;;;35.70;94.50;;;;;;5040331;28;20121;-66
2023/09/11 09:02:26;;;;;;;18.58;5.57;;;35.70;93.70;;;;;;5027203;28;20054;-66
2023/09/11 09:04:53;;;;;;;15.50;5.82;;;35.90;94.10;;;;;;5046382;28;20045;-65
2023/09/11 09:07:19;;;;;;;16.40;5.60;;;36.00;93.90;;;;;;5051144;28;20046;-65
2023/09/11 09:09:45;;;;;;;14.90;5.85;;;36.10;93.90;;;;;;5041267;28;20079;-66
2023/09/11 09:12:11;;;;;;;17.35;5.97;;;36.20;93.70;;;;;;5045472;28;20549;-67
2023/09/11 09:14:38;;;;;;;14.18;5.63;;;36.30;93.50;;;;;;5035380;28;20136;-66
2023/09/11 09:17:04;;;;;;;13.43;5.68;;;36.40;93.20;;;;;;5036545;28;20399;-65
2023/09/11 09:19:31;;;;;;;13.55;6.10;;;36.30;93.20;;;;;;5047676;28;20041;-68
2023/09/11 09:22:04;;;;;;;12.68;5.68;;;35.80;93.40;;;;;;5050475;28;20041;-66
2023/09/11 09:24:34;;;;;;;14.13;6.30;;;35.20;93.60;;;;;;5050486;28;20041;-71
2023/09/11 09:27:02;;;;;;;15.27;5.68;;;34.70;94.20;;;;;;5046886;28;20041;-66
2023/09/11 09:29:36;;;;;;;24.27;6.32;;;34.20;94.30;;;;;;5042656;28;20045;-65
2023/09/11 09:32:03;;;;;;;12.68;5.85;;;33.90;94.70;;;;;;5050870;28;20044;-66
2023/09/11 09:34:31;;;;;;;13.57;6.25;;;33.50;94.70;;;;;;5049438;28;20444;-66
2023/09/11 09:36:57;;;;;;;14.38;6.50;;;33.20;94.90;;;;;;5044409;28;20053;-66
2023/09/11 09:39:28;;;;;;;18.83;6.70;;;33.00;95.00;;;;;;5041621;28;20068;-66
2023/09/11 09:42:07;;;;;;;15.25;6.43;;;32.80;95.20;;;;;;5050377;28;20109;-67
2023/09/11 09:44:35;;;;;;;13.70;7.05;;;32.40;95.60;;;;;;5043708;28;20399;-70
2023/09/11 09:47:10;;;;;;;12.60;6.88;;;32.40;95.70;;;;;;5035846;28;20462;-66
2023/09/11 09:49:43;;;;;;;16.13;6.57;;;32.30;95.90;;;;;;5017209;28;20190;-66
2023/09/11 09:52:09;;;;;;;;;;;32.20;96.00;;;;;;4971616;28;297568;-67
2023/09/11 09:54:42;;;;;;;14.82;7.18;;;32.10;96.30;;;;;;4986294;28;19933;-70
2023/09/11 09:57:20;;;;;;;15.52;6.72;;;32.00;96.30;;;;;;5016571;28;20046;-66
2023/09/11 09:59:50;;;;;;;13.00;6.80;;;32.00;96.60;;;;;;4976752;28;20059;-66
2023/09/11 10:02:22;;;;;;;12.13;6.38;;;31.90;96.30;;;;;;4976002;28;20141;-67
2023/09/11 10:04:51;;;;;;;11.88;6.97;;;31.90;96.30;;;;;;4974314;28;20050;-67
2023/09/11 10:07:44;;;;;;;19.02;7.32;;;31.80;96.10;;;;;;4978942;28;20042;-66
2023/09/11 10:10:27;;;;;;;12.10;6.50;;;31.60;95.70;;;;;;4994552;28;20051;-66
2023/09/11 10:13:15;;;;;;;16.92;6.72;;;31.50;96.20;;;;;;4997670;28;20054;-66
2023/09/11 10:15:43;;;;;;;14.07;7.40;;;31.50;96.40;;;;;;4987102;28;20504;-66
2023/09/11 10:18:10;;;;;;;18.02;7.55;;;31.50;96.50;;;;;;4979772;28;20075;-65
2023/09/11 10:20:36;;;;;;;13.27;7.03;;;31.40;96.50;;;;;;5006283;28;20046;-65
2023/09/11 10:23:05;;;;;;;14.07;7.22;;;31.40;96.30;;;;;;4983946;28;20073;-66
2023/09/11 10:25:40;;;;;;;14.45;8.85;;;31.30;96.50;;;;;;4995992;28;20053;-66
2023/09/11 10:28:08;;;;;;;15.73;7.40;;;31.30;96.70;;;;;;4979321;28;20052;-67
2023/09/11 10:30:43;;;;;;;14.23;8.23;;;31.30;96.80;;;;;;5006109;28;20394;-66
2023/09/11 10:33:17;;;;;;;13.15;7.82;;;31.30;97.00;;;;;;4989706;28;20050;-66
2023/09/11 10:35:45;;;;;;;12.73;7.55;;;31.30;97.30;;;;;;4975596;28;20046;-68
2023/09/11 10:38:14;;;;;;;17.13;7.85;;;31.40;97.20;;;;;;4974138;28;20050;-66
2023/09/11 10:40:42;;;;;;;15.90;7.43;;;31.30;97.30;;;;;;4998087;28;20043;-66
2023/09/11 10:43:08;;;;;;;20.60;8.68;;;31.40;97.50;;;;;;4989163;28;20039;-66
2023/09/11 10:45:34;;;;;;;14.38;8.65;;;31.30;97.20;;;;;;4979667;28;20055;-66
2023/09/11 10:48:01;;;;;;;16.45;8.10;;;31.30;97.10;;;;;;4971517;28;20065;-66
2023/09/11 10:50:38;;;;;;;13.75;8.75;;;31.30;97.30;;;;;;5020009;28;20156;-66
2023/09/11 10:53:08;;;;;;;17.83;8.65;;;31.30;97.60;;;;;;4992593;28;20046;-65
2023/09/11 10:55:34;;;;;;;13.73;8.50;;;31.30;97.50;;;;;;4981706;28;20088;-64
2023/09/11 10:58:05;;;;;;;14.40;9.13;;;31.30;97.50;;;;;;4998049;28;20042;-65
2023/09/11 11:00:37;;;;;;;15.05;8.73;;;31.20;97.30;;;;;;4992707;28;20046;-66
2023/09/11 11:03:04;;;;;;;14.35;8.70;;;31.20;97.50;;;;;;4984765;28;20050;-66
2023/09/11 11:05:32;;;;;;;20.77;9.55;;;31.20;97.70;;;;;;4972931;28;20043;-65
2023/09/11 11:07:58;;;;;;;13.18;9.27;;;31.10;97.90;;;;;;4997795;28;20046;-66
2023/09/11 11:10:26;;;;;;;13.65;8.27;;;31.10;97.90;;;;;;4997550;28;20042;-66
2023/09/11 11:13:05;;;;;;;14.75;9.18;;;31.10;98.20;;;;;;4985679;28;20050;-65
2023/09/11 11:15:31;;;;;;;19.13;10.52;;;31.10;97.60;;;;;;4985886;28;20054;-65
2023/09/11 11:18:26;;;;;;;15.95;8.55;;;31.10;97.70;;;;;;4989761;28;20046;-65
2023/09/11 11:21:06;;;;;;;20.77;8.48;;;31.00;97.60;;;;;;4973272;28;20046;-65
2023/09/11 11:23:52;;;;;;;25.02;9.07;;;31.00;97.50;;;;;;5015809;28;20034;-65
2023/09/11 11:26:19;;;;;;;17.30;9.35;;;31.00;97.80;;;;;;4990964;28;20399;-67
2023/09/11 11:28:45;;;;;;;16.52;9.05;;;31.10;98.10;;;;;;4986774;28;20046;-64
2023/09/11 11:31:18;;;;;;;15.80;9.75;;;31.10;98.10;;;;;;4992667;28;20063;-65
2023/09/11 11:33:46;;;;;;;14.82;9.45;;;31.00;97.80;;;;;;4984999;28;20046;-66
2023/09/11 11:36:12;;;;;;;18.58;10.45;;;31.00;98.10;;;;;;5008391;28;20086;-65
2023/09/11 11:38:38;;;;;;;16.70;10.00;;;31.00;98.20;;;;;;5007242;28;20392;-65
2023/09/11 11:41:07;;;;;;;16.42;9.77;;;30.90;98.30;;;;;;4991500;28;20114;-65
2023/09/11 11:43:34;;;;;;;19.30;9.50;;;30.90;98.30;;;;;;4987809;28;20038;-65
2023/09/11 11:46:00;;;;;;;18.40;9.15;;;30.80;98.30;;;;;;4980499;28;20057;-66
2023/09/11 11:48:27;;;;;;;12.65;9.00;;;30.80;98.60;;;;;;4987442;28;20152;-66
2023/09/11 11:50:53;;;;;;;13.57;8.27;;;30.90;98.40;;;;;;4983775;28;20054;-68
2023/09/11 11:53:21;;;;;;;14.45;8.82;;;30.90;98.40;;;;;;4981848;28;20125;-66
2023/09/11 11:55:48;;;;;;;13.75;10.00;;;30.90;98.30;;;;;;4972186;28;20054;-65
2023/09/11 11:58:15;;;;;;;13.18;7.90;;;31.00;98.40;;;;;;4988976;28;20054;-65
2023/09/11 12:01:01;;;;;;;11.48;7.53;;;30.90;98.50;;;;;;5004189;28;20046;-65
2023/09/11 12:03:29;;;;;;;12.02;7.20;;;30.90;97.50;;;;;;4991277;28;20547;-67
2023/09/11 12:05:56;;;;;;;15.95;7.60;;;30.80;97.90;;;;;;4987234;28;20128;-70
2023/09/11 12:08:23;;;;;;;15.25;7.55;;;30.90;98.10;;;;;;4973293;28;20484;-67
2023/09/11 12:10:49;;;;;;;12.15;7.72;;;30.90;97.90;;;;;;4996987;28;20054;-67
2023/09/11 12:13:16;;;;;;;16.65;7.68;;;30.90;97.60;;;;;;4960563;28;20300;-67
2023/09/11 12:15:42;;;;;;;14.70;7.38;;;30.90;97.70;;;;;;4971606;28;20047;-68
2023/09/11 12:18:13;;;;;;;13.50;7.95;;;30.80;98.00;;;;;;4977206;28;20042;-67
2023/09/11 12:20:54;;;;;;;11.05;6.45;;;30.80;98.10;;;;;;4993287;28;20042;-66
2023/09/11 12:23:20;;;;;;;10.75;6.45;;;30.80;97.80;;;;;;4982856;28;20074;-66
2023/09/11 12:25:46;;;;;;;10.15;6.63;;;30.80;97.40;;;;;;4965424;28;20074;-67
2023/09/11 12:28:13;;;;;;;11.18;6.05;;;30.80;97.40;;;;;;4986618;28;20069;-67
2023/09/11 12:30:41;;;;;;;10.02;5.43;;;30.70;97.60;;;;;;5000763;28;20118;-67
2023/09/11 12:33:12;;;;;;;10.32;5.25;;;30.80;97.30;;;;;;4988629;28;20038;-67